Aeroporto :
LOGIN :

Iscrizione | Disclaimer

   EN    FR    IT 

 










Sommario :    VFR   VFR Marginale   IFR   IFR Intensivo   IFR Molto Intensivo
Visibilità : 
Base nubi : 
>= 8 km
>= 3000ft
5 / 8 km
1000 / 3000 ft
1500m / 5 km
500 / 1000 ft
800 / 1500m
200 / 500 ft
< 800m
< 200 ft
Simboli :   Temporali  Nebbia  Neve Forte  Precipitazioni Forti  Vento > 20 kt
SIGMETs :   Varie  Temporali  Ghiacco  Turbolenza  Onda orograficha  Ceneri Vulcaniche






- Altitudine del aeroporto : 288 ft
- Codice IATA : BZZ


EGVN - RAF Brize Norton

ULTIMO METAR :
  • 221950Z 25008KT 9999 FEW018 BKN036 09/05 Q1020 NOSIG RMK BLU BLU

METARs OBSOLETI :
  • 221850Z 24010KT 9999 SCT020 BKN027 BKN200 09/05 Q1020 TEMPO FEW020 BKN07 RMK WHT TEMPO BLU
  • 221820Z 25010G21KT 9999 FEW018 SCT040 BKN140 09/06 Q1020 TEMPO SCT018 RMK BLU TEMPO WHT
  • 221750Z 25010G20KT 9999 FEW030 SCT140 OVC200 09/06 Q1019 TEMPO SCT022 RMK BLU TEMPO WHT
  • 221720Z 25010KT 9999 FEW030 BKN080 09/06 Q1019 NOSIG RMK BLU BLU

TAF TAF EGVN
Valido dal 22 a 18 ore il 23 a 18 ore UTC


221637Z 2218/2318 24015KT 9999 SCT025
PROB40
TEMPO 2218/2222 -RA SCT020
BECMG 2222/2301 21010KT BKN010
TEMPO 2300/2305 4000 RA BKN006
BECMG 2303/2305 24020G35KT
PROB40
TEMPO 2305/2312 6000 -RADZ
BECMG 2310/2312 26015G25KT SCT025
PROB30
TEMPO 2312/2315 -SHRA SCT023
BECMG 2315/2317 30010KT



MetMap, La meteo Aeronautica in un colpo d'occhio ! - Copyright ORBIFLY Dicembre 2007 - Disclaimer

ORBIFLY MET'MAP TEAM :

Programmazione e sviluppo : Alexandra Zaïnal
Concezione : Baudouin d'Aumeries
Aiuto per la programmazione : Marc-Olivier Méhu
Supporto tecnico e logistico : Manuel Goepfert
Aiuto per la traduzione : Arnaldo La Scala

Contatto : metmap@orbifly.com




FONTI E CREDITI :

   NOAA